Time;durP1;ratioP1;P1;durP2;ratioP2;P2;SDS_P1;SDS_P2;PMS_P1;PMS_P2;Temp;Humidity;BMP_temperature;BMP_pressure;BME280_temperature;BME280_humidity;BME280_pressure;Samples;Min_cycle;Max_cycle;Signal;HPM_P1;HPM_P2
2022/09/11 00:01:13;;;;;;;;;;;;;;;27.64;41.56;94532.38;4937962;28;7168;-60
2022/09/11 00:03:49;;;;;;;;;;;;;;;27.65;41.97;94533.84;4952841;28;7236;-60
2022/09/11 00:06:26;;;;;;;;;;;;;;;27.63;41.38;94531.63;4936958;28;7196;-60
2022/09/11 00:09:00;;;;;;;;;;;;;;;27.62;41.69;94523.88;4950623;28;7180;-60
2022/09/11 00:11:39;;;;;;;;;;;;;;;27.63;41.90;94528.88;4929367;28;7324;-60
2022/09/11 00:14:22;;;;;;;;;;;;;;;27.62;41.68;94521.09;4937177;28;7208;-60
2022/09/11 00:17:00;;;;;;;;;;;;;;;27.60;41.98;94521.59;4953315;28;7357;-60
2022/09/11 00:19:28;;;;;;;;;;;;;;;27.60;41.80;94527.13;4952009;28;7299;-60
2022/09/11 00:22:27;;;;;;;;;;;;;;;27.60;41.92;94524.38;4951088;28;7433;-60
2022/09/11 00:25:11;;;;;;;;;;;;;;;27.59;41.67;94531.19;4878459;29;7019;-60
2022/09/11 00:28:01;;;;;;;;;;;;;;;27.60;41.96;94532.66;4897546;29;7708;-60
2022/09/11 00:30:39;;;;;;;;;;;;;;;27.60;41.41;94520.84;4905215;29;9383;-60
2022/09/11 00:33:09;;;;;;;;;;;;;;;27.59;41.91;94524.91;4911141;29;7397;-60
2022/09/11 00:35:35;;;;;;;;;;;;;;;27.59;41.85;94525.66;4906034;29;7301;-60
2022/09/11 00:38:02;;;;;;;;;;;;;;;27.57;41.83;94516.38;4906792;29;7157;-60
2022/09/11 00:40:59;;;;;;;;;;;;;;;27.58;41.94;94513.09;4911159;29;8188;-60
2022/09/11 00:44:01;;;;;;;;;;;;;;;27.58;41.64;94521.38;4912433;29;7196;-60
2022/09/11 00:47:08;;;;;;;;;;;;;;;27.57;41.79;94517.13;4893495;29;9683;-60
2022/09/11 00:49:55;;;;;;;;;;;;;;;27.55;41.86;94518.91;4937620;28;7238;-60
2022/09/11 00:52:34;;;;;;;;;;;;;;;27.57;41.57;94516.38;4905149;29;7188;-60
2022/09/11 00:55:09;;;;;;;;;;;;;;;27.57;41.63;94519.91;4923813;29;9577;-60
2022/09/11 00:57:54;;;;;;;;;;;;;;;27.57;41.94;94519.16;4900555;29;7141;-60
2022/09/11 01:00:21;;;;;;;;;;;;;;;27.57;41.90;94511.59;4966023;28;7193;-60
2022/09/11 01:02:52;;;;;;;;;;;;;;;27.57;41.71;94508.84;4973107;28;8575;-60
2022/09/11 01:05:34;;;;;;;;;;;;;;;27.55;41.80;94508.63;4992082;28;7117;-60
2022/09/11 01:08:09;;;;;;;;;;;;;;;27.54;41.99;94501.59;4989693;28;7246;-60
2022/09/11 01:10:50;;;;;;;;;;;;;;;27.54;41.78;94504.34;4986193;28;7485;-61
2022/09/11 01:13:38;;;;;;;;;;;;;;;27.54;42.15;94506.34;4991398;28;7310;-60
2022/09/11 01:16:33;;;;;;;;;;;;;;;27.54;41.83;94501.59;4986881;28;7327;-60
2022/09/11 01:19:17;;;;;;;;;;;;;;;27.53;42.02;94504.88;4988200;28;7241;-60
2022/09/11 01:22:09;;;;;;;;;;;;;;;27.52;41.94;94504.13;4990716;28;7915;-60
2022/09/11 01:25:00;;;;;;;;;;;;;;;27.53;41.91;94497.31;4992238;28;7549;-60
2022/09/11 01:28:07;;;;;;;;;;;;;;;27.52;41.63;94501.38;4985411;28;7299;-60
2022/09/11 01:30:45;;;;;;;;;;;;;;;27.52;42.22;94497.84;4951356;28;7330;-60
2022/09/11 01:33:33;;;;;;;;;;;;;;;27.51;42.10;94497.09;4950678;28;8915;-60
2022/09/11 01:36:12;;;;;;;;;;;;;;;27.50;41.60;94498.38;4934738;28;7407;-60
2022/09/11 01:38:52;;;;;;;;;;;;;;;27.51;42.09;94501.91;4952267;28;9302;-60
2022/09/11 01:41:26;;;;;;;;;;;;;;;27.52;42.14;94497.84;4933087;28;8509;-60
2022/09/11 01:44:14;;;;;;;;;;;;;;;27.51;41.99;94486.03;4952369;28;7247;-60
2022/09/11 01:47:04;;;;;;;;;;;;;;;27.51;42.22;94497.09;4950773;28;7454;-60
2022/09/11 01:50:04;;;;;;;;;;;;;;;27.52;41.74;94493.06;4950366;28;7311;-60
2022/09/11 01:52:56;;;;;;;;;;;;;;;27.51;41.82;94482.56;4951203;28;8583;-60
2022/09/11 01:55:38;;;;;;;;;;;;;;;27.51;41.85;94480.50;4934731;28;9684;-60
2022/09/11 01:58:12;;;;;;;;;;;;;;;27.51;41.68;94483.28;4950367;28;9422;-60
2022/09/11 02:00:53;;;;;;;;;;;;;;;27.49;41.88;94483.06;4933438;28;7482;-60
2022/09/11 02:03:39;;;;;;;;;;;;;;;27.47;41.82;94477.31;4935795;28;7899;-61
2022/09/11 02:06:26;;;;;;;;;;;;;;;27.49;41.56;94483.06;4990547;28;9055;-60
2022/09/11 02:09:01;;;;;;;;;;;;;;;27.48;41.69;94484.34;4988235;28;7579;-60
2022/09/11 02:11:54;;;;;;;;;;;;;;;27.48;41.87;94483.59;5010515;28;9382;-60
2022/09/11 02:14:52;;;;;;;;;;;;;;;27.48;41.83;94480.81;5004636;28;7417;-60
2022/09/11 02:20:42;;;;;;;;;;;;;;;27.48;41.61;94483.59;4952002;28;10374;-60
2022/09/11 02:23:29;;;;;;;;;;;;;;;27.47;41.59;94479.34;4932527;28;7333;-60
2022/09/11 02:26:15;;;;;;;;;;;;;;;27.46;41.39;94484.13;4951434;29;7181;-60
2022/09/11 02:28:42;;;;;;;;;;;;;;;27.47;42.21;94485.59;4952014;28;7147;-60
2022/09/11 02:31:08;;;;;;;;;;;;;;;27.48;41.95;94483.59;4951554;28;9395;-60
2022/09/11 02:33:36;;;;;;;;;;;;;;;27.46;41.65;94484.13;4944525;29;7167;-60
2022/09/11 02:36:11;;;;;;;;;;;;;;;27.47;41.65;94484.88;4948950;28;7048;-60
2022/09/11 02:39:13;;;;;;;;;;;;;;;27.45;42.06;94488.13;4951854;29;7467;-60
2022/09/11 02:42:16;;;;;;;;;;;;;;;27.47;41.61;94480.06;4945030;29;6935;-60
2022/09/11 02:45:14;;;;;;;;;;;;;;;27.45;41.70;94488.13;4945817;28;9424;-60
2022/09/11 02:48:25;;;;;;;;;;;;;;;27.44;41.82;94489.41;4931297;29;6951;-60
2022/09/11 02:54:29;;;;;;;;;;;;;;;27.42;42.22;94493.97;4878640;29;7244;-60
2022/09/11 02:57:26;;;;;;;;;;;;;;;27.42;41.54;94489.19;4890557;29;7235;-60
2022/09/11 02:59:59;;;;;;;;;;;;;;;27.44;41.44;94494.19;4860917;29;7383;-60
2022/09/11 03:02:28;;;;;;;;;;;;;;;27.43;41.88;94495.44;4878510;29;8909;-60
2022/09/11 03:05:04;;;;;;;;;;;;;;;27.41;42.14;94489.69;4863974;29;7397;-60
2022/09/11 03:07:58;;;;;;;;;;;;;;;27.40;41.63;94486.22;4877838;29;8461;-60
2022/09/11 03:10:33;;;;;;;;;;;;;;;27.39;41.64;94484.69;4858380;29;7262;-60
2022/09/11 03:13:10;;;;;;;;;;;;;;;27.37;41.94;94490.00;4878858;29;9702;-60
2022/09/11 03:15:47;;;;;;;;;;;;;;;27.37;41.81;94492.00;4850076;29;9728;-60
2022/09/11 03:18:26;;;;;;;;;;;;;;;27.37;42.04;94492.75;4878783;29;7295;-60
2022/09/11 03:21:02;;;;;;;;;;;;;;;27.35;42.02;94489.78;4878296;29;7246;-60
2022/09/11 03:23:57;;;;;;;;;;;;;;;27.35;41.87;94495.28;4860856;29;7452;-60
2022/09/11 03:26:35;;;;;;;;;;;;;;;27.35;42.08;94491.75;4859409;29;7249;-60
2022/09/11 03:29:11;;;;;;;;;;;;;;;27.36;42.18;94493.28;4856031;29;10592;-60
2022/09/11 03:32:11;;;;;;;;;;;;;;;27.35;41.72;94506.34;4904009;29;7001;-60
2022/09/11 03:34:39;;;;;;;;;;;;;;;27.35;41.80;94505.56;4933176;29;9436;-60
2022/09/11 03:37:17;;;;;;;;;;;;;;;27.34;41.92;94506.84;4926216;29;7683;-60
2022/09/11 03:39:47;;;;;;;;;;;;;;;27.33;41.58;94511.63;4928337;29;6865;-60
2022/09/11 03:42:22;;;;;;;;;;;;;;;27.34;42.28;94512.38;4934402;29;7471;-60
2022/09/11 03:45:03;;;;;;;;;;;;;;;27.33;42.05;94508.84;4919387;29;9050;-60
2022/09/11 03:47:31;;;;;;;;;;;;;;;27.33;42.06;94502.56;4942027;28;9661;-60
2022/09/11 03:50:24;;;;;;;;;;;;;;;27.33;42.00;94503.31;4932962;28;7336;-60
2022/09/11 03:52:59;;;;;;;;;;;;;;;27.31;42.07;94494.06;4917323;29;9807;-60
2022/09/11 03:55:28;;;;;;;;;;;;;;;27.33;41.72;94506.09;4932125;29;9089;-60
2022/09/11 03:57:54;;;;;;;;;;;;;;;27.32;42.00;94496.28;4934647;29;7406;-60
2022/09/11 04:00:20;;;;;;;;;;;;;;;27.31;42.14;94500.34;4918648;29;7164;-60
2022/09/11 04:02:54;;;;;;;;;;;;;;;27.30;42.04;94498.81;4961484;28;7056;-60
2022/09/11 04:05:23;;;;;;;;;;;;;;;27.31;41.77;94508.63;4991115;28;7009;-60
2022/09/11 04:08:01;;;;;;;;;;;;;;;27.29;41.98;94496.59;4990165;28;7005;-60
2022/09/11 04:10:44;;;;;;;;;;;;;;;27.29;42.00;94502.88;5000982;28;7310;-60
2022/09/11 04:13:24;;;;;;;;;;;;;;;27.28;41.69;94498.59;5006511;28;7449;-60
2022/09/11 04:16:09;;;;;;;;;;;;;;;27.30;41.90;94492.56;4992844;28;7068;-60
2022/09/11 04:18:37;;;;;;;;;;;;;;;27.28;42.07;94495.84;5001286;28;7120;-60
2022/09/11 04:21:33;;;;;;;;;;;;;;;27.28;42.02;94487.56;4994220;28;7525;-60
2022/09/11 04:24:09;;;;;;;;;;;;;;;27.28;42.30;94490.31;4995255;28;6979;-60
2022/09/11 04:26:40;;;;;;;;;;;;;;;27.28;41.85;94493.09;4992398;28;7014;-60
2022/09/11 04:29:21;;;;;;;;;;;;;;;27.26;42.08;94492.84;5010155;28;7428;-60
2022/09/11 04:31:50;;;;;;;;;;;;;;;27.26;42.08;94481.06;4993031;28;9452;-60
2022/09/11 04:34:26;;;;;;;;;;;;;;;27.25;42.14;94485.09;4991137;28;7215;-60
2022/09/11 04:37:00;;;;;;;;;;;;;;;27.25;42.31;94485.81;5010320;28;7228;-60
2022/09/11 04:39:37;;;;;;;;;;;;;;;27.23;42.16;94485.59;4991967;28;10192;-60
2022/09/11 04:42:17;;;;;;;;;;;;;;;27.23;42.21;94493.16;4994615;28;7204;-60
2022/09/11 04:44:50;;;;;;;;;;;;;;;27.23;41.89;94490.41;4986593;28;7355;-61
2022/09/11 04:47:24;;;;;;;;;;;;;;;27.22;41.67;94492.41;5007344;28;7498;-60
2022/09/11 04:49:54;;;;;;;;;;;;;;;27.23;41.70;94487.63;4982364;28;7089;-60
2022/09/11 04:52:21;;;;;;;;;;;;;;;27.23;41.93;94491.13;4980651;28;7188;-60
2022/09/11 04:54:49;;;;;;;;;;;;;;;27.23;41.86;94499.41;4987692;28;7298;-60
2022/09/11 04:57:17;;;;;;;;;;;;;;;27.23;42.26;94499.41;4985363;28;7415;-60
2022/09/11 04:59:43;;;;;;;;;;;;;;;27.22;42.12;94494.41;4982749;28;10517;-60
2022/09/11 05:02:08;;;;;;;;;;;;;;;27.20;42.04;94503.22;5007534;28;10836;-60
2022/09/11 05:04:45;;;;;;;;;;;;;;;27.21;42.06;94495.69;4990782;28;7197;-60
2022/09/11 05:07:18;;;;;;;;;;;;;;;27.22;42.16;94500.69;5001262;28;7128;-60
2022/09/11 05:09:53;;;;;;;;;;;;;;;27.22;41.89;94502.69;4986461;28;7343;-59
2022/09/11 05:12:24;;;;;;;;;;;;;;;27.20;41.77;94500.47;4983154;28;9429;-60
2022/09/11 05:14:50;;;;;;;;;;;;;;;27.20;41.68;94497.69;4982068;28;6992;-60
2022/09/11 05:17:41;;;;;;;;;;;;;;;27.19;41.79;94501.72;4991351;28;7287;-60
2022/09/11 05:20:17;;;;;;;;;;;;;;;27.20;41.97;94505.22;4988739;28;9655;-60
2022/09/11 05:22:45;;;;;;;;;;;;;;;27.19;42.21;94498.19;5008573;28;7207;-60
2022/09/11 05:25:13;;;;;;;;;;;;;;;27.18;42.38;94503.00;4993408;28;8174;-60
2022/09/11 05:27:50;;;;;;;;;;;;;;;27.18;42.01;94502.25;5001008;28;7133;-60
2022/09/11 05:30:45;;;;;;;;;;;;;;;27.19;41.92;94498.19;4985924;28;9446;-60
2022/09/11 05:33:25;;;;;;;;;;;;;;;27.20;42.27;94500.47;4952038;28;7193;-60
2022/09/11 05:36:04;;;;;;;;;;;;;;;27.18;41.65;94505.75;4953745;28;9622;-60
2022/09/11 05:38:35;;;;;;;;;;;;;;;27.20;41.77;94505.97;4970218;28;9298;-60
2022/09/11 05:41:05;;;;;;;;;;;;;;;27.20;42.26;94511.50;4970840;28;7290;-60
2022/09/11 05:44:03;;;;;;;;;;;;;;;27.22;41.88;94514.50;4953211;28;7156;-60
2022/09/11 05:46:40;;;;;;;;;;;;;;;27.21;42.13;94515.03;4912264;29;7715;-60
2022/09/11 05:49:08;;;;;;;;;;;;;;;27.21;41.66;94512.97;4931386;29;9626;-60
2022/09/11 05:51:44;;;;;;;;;;;;;;;27.19;41.59;94515.53;4932916;28;9513;-60
2022/09/11 05:54:09;;;;;;;;;;;;;;;27.18;42.19;94522.31;4916905;29;6994;-60
2022/09/11 05:56:35;;;;;;;;;;;;;;;27.17;42.32;94518.06;4931499;28;7409;-60
2022/09/11 05:59:08;;;;;;;;;;;;;;;27.13;42.20;94523.13;4929281;29;7305;-60
2022/09/11 06:01:34;;;;;;;;;;;;;;;27.14;42.24;94521.88;4926943;29;6853;-60
2022/09/11 06:04:17;;;;;;;;;;;;;;;27.15;42.35;94517.06;4910981;29;9162;-60
2022/09/11 06:07:01;;;;;;;;;;;;;;;27.16;42.07;94529.63;4926089;29;7009;-60
2022/09/11 06:09:33;;;;;;;;;;;;;;;27.19;42.38;94537.59;4921273;28;7904;-59
2022/09/11 06:12:00;;;;;;;;;;;;;;;27.20;42.30;94546.66;4953378;28;9319;-60
2022/09/11 06:14:26;;;;;;;;;;;;;;;27.18;41.57;94546.41;4959637;28;7575;-60
2022/09/11 06:16:56;;;;;;;;;;;;;;;27.17;42.44;94544.91;4968634;28;7205;-60
2022/09/11 06:19:31;;;;;;;;;;;;;;;27.17;41.85;94547.69;4963122;28;7727;-60
2022/09/11 06:21:58;;;;;;;;;;;;;;;27.19;41.66;94547.91;4972682;28;8428;-60
2022/09/11 06:24:35;;;;;;;;;;;;;;;27.22;41.20;94564.19;4975561;28;7309;-60
2022/09/11 06:27:10;;;;;;;;;;;;;;;27.23;41.33;94564.97;4994665;28;7442;-60
2022/09/11 06:30:06;;;;;;;;;;;;;;;27.24;41.82;94577.47;4982968;28;7202;-60
2022/09/11 06:32:47;;;;;;;;;;;;;;;27.23;42.22;94582.25;4952875;28;7165;-60
2022/09/11 06:35:22;;;;;;;;;;;;;;;27.22;41.60;94580.00;4938511;28;8039;-60
2022/09/11 06:37:59;;;;;;;;;;;;;;;27.22;41.88;94591.06;4938363;28;7113;-60
2022/09/11 06:40:38;;;;;;;;;;;;;;;27.20;41.82;94588.81;4953636;28;7005;-61
2022/09/11 06:43:37;;;;;;;;;;;;;;;27.18;41.99;94591.34;4953637;28;7316;-60
2022/09/11 06:46:17;;;;;;;;;;;;;;;27.18;41.69;94594.13;4916166;29;7229;-60
2022/09/11 06:48:54;;;;;;;;;;;;;;;27.17;41.79;94594.63;4916423;29;6932;-60
2022/09/11 06:51:32;;;;;;;;;;;;;;;27.16;41.55;94582.84;4914070;29;7084;-60
2022/09/11 06:54:01;;;;;;;;;;;;;;;27.17;41.76;94592.59;4916120;29;7552;-60
2022/09/11 06:56:31;;;;;;;;;;;;;;;27.16;41.79;94582.84;4914428;29;7440;-60
2022/09/11 06:58:59;;;;;;;;;;;;;;;27.17;41.52;94584.31;4914776;29;6988;-60
2022/09/11 07:01:27;;;;;;;;;;;;;;;27.16;40.92;94582.84;4915590;29;8434;-60
2022/09/11 07:04:30;;;;;;;;;;;;;;;27.18;41.61;94587.84;4916135;29;10579;-60
2022/09/11 07:07:08;;;;;;;;;;;;;;;27.18;41.60;94580.31;4916258;29;7449;-60
2022/09/11 07:09:43;;;;;;;;;;;;;;;27.17;41.30;94580.81;4926941;28;7452;-60
2022/09/11 07:12:15;;;;;;;;;;;;;;;27.17;41.55;94584.31;4939914;28;6998;-60
2022/09/11 07:15:10;;;;;;;;;;;;;;;27.18;42.00;94585.84;4940308;28;7175;-60
2022/09/11 07:17:38;;;;;;;;;;;;;;;27.18;41.72;94582.31;4916015;29;7388;-60
2022/09/11 07:20:10;;;;;;;;;;;;;;;27.17;41.35;94583.56;4942014;28;9797;-60
2022/09/11 07:23:08;;;;;;;;;;;;;;;27.16;41.68;94582.09;4944742;28;7381;-60
2022/09/11 07:25:47;;;;;;;;;;;;;;;27.15;41.47;94581.34;4911719;29;8243;-60
2022/09/11 07:28:22;;;;;;;;;;;;;;;27.16;41.27;94576.56;4898022;29;7231;-60
2022/09/11 07:31:13;;;;;;;;;;;;;;;27.17;41.97;94578.81;4899894;29;7248;-60
2022/09/11 07:33:44;;;;;;;;;;;;;;;27.16;41.81;94580.09;4909423;29;9299;-60
2022/09/11 07:36:34;;;;;;;;;;;;;;;27.15;41.33;94573.06;4904572;29;7151;-59
2022/09/11 07:39:03;;;;;;;;;;;;;;;27.12;41.77;94571.31;4909129;29;7179;-60
2022/09/11 07:41:43;;;;;;;;;;;;;;;27.15;41.54;94586.84;4921806;29;7418;-60
2022/09/11 07:44:09;;;;;;;;;;;;;;;27.15;41.44;94581.34;4896057;29;7193;-60
2022/09/11 07:46:43;;;;;;;;;;;;;;;27.16;41.88;94590.38;4907861;29;7320;-60
2022/09/11 07:49:21;;;;;;;;;;;;;;;27.17;41.33;94587.09;4896055;29;7672;-60
2022/09/11 07:51:58;;;;;;;;;;;;;;;27.18;41.85;94587.84;4909348;29;7077;-60
2022/09/11 07:54:42;;;;;;;;;;;;;;;27.18;41.78;94580.31;4911078;29;7604;-60
2022/09/11 07:57:08;;;;;;;;;;;;;;;27.20;41.27;94588.06;4936964;28;8978;-60
2022/09/11 07:59:34;;;;;;;;;;;;;;;27.18;41.60;94580.31;4929083;28;7199;-60
2022/09/11 08:02:01;;;;;;;;;;;;;;;27.20;41.43;94588.81;4959503;28;7720;-60
2022/09/11 08:04:28;;;;;;;;;;;;;;;27.20;41.43;94588.06;4990484;28;7433;-60
2022/09/11 08:06:58;;;;;;;;;;;;;;;27.20;41.64;94594.34;4991073;28;7052;-60
2022/09/11 08:09:28;;;;;;;;;;;;;;;27.19;41.33;94590.06;4970996;28;7499;-60
2022/09/11 08:11:57;;;;;;;;;;;;;;;27.18;41.29;94583.06;4985065;28;7290;-60
2022/09/11 08:14:28;;;;;;;;;;;;;;;27.20;41.48;94588.06;5004156;28;7693;-60
2022/09/11 08:17:30;;;;;;;;;;;;;;;27.20;41.74;94597.09;4984847;28;7284;-60
2022/09/11 08:19:56;;;;;;;;;;;;;;;27.18;41.77;94587.84;4995155;28;6992;-60
2022/09/11 08:22:52;;;;;;;;;;;;;;;27.20;41.64;94590.84;4982004;28;9828;-60
2022/09/11 08:25:18;;;;;;;;;;;;;;;27.17;41.68;94584.31;4949033;28;9576;-60
2022/09/11 08:27:50;;;;;;;;;;;;;;;27.19;41.75;94594.84;4951425;28;7276;-60
2022/09/11 08:30:15;;;;;;;;;;;;;;;27.16;41.54;94593.88;4934207;28;7280;-61
2022/09/11 08:32:42;;;;;;;;;;;;;;;27.16;41.45;94596.66;4946008;28;7310;-60
2022/09/11 08:35:37;;;;;;;;;;;;;;;27.18;41.46;94594.13;4935127;28;7307;-61
2022/09/11 08:38:32;;;;;;;;;;;;;;;27.19;41.56;94592.84;4950466;28;7222;-61
2022/09/11 08:41:16;;;;;;;;;;;;;;;27.21;41.64;94598.59;4919069;29;7109;-61
2022/09/11 08:43:57;;;;;;;;;;;;;;;27.18;41.89;94591.34;4920873;29;7172;-61
2022/09/11 08:46:38;;;;;;;;;;;;;;;27.20;41.20;94599.88;4904127;29;8320;-61
2022/09/11 08:49:50;;;;;;;;;;;;;;;27.22;41.50;94600.09;4920763;29;6912;-61
2022/09/11 08:52:37;;;;;;;;;;;;;;;27.21;41.26;94586.81;4917031;29;7411;-61
2022/09/11 08:55:45;;;;;;;;;;;;;;;27.20;41.17;94586.06;4920532;29;9012;-61
2022/09/11 08:58:44;;;;;;;;;;;;;;;27.21;41.72;94590.31;4855247;29;7157;-60
2022/09/11 09:01:35;;;;;;;;;;;;;;;27.21;41.67;94587.53;4882020;29;9349;-60
2022/09/11 09:04:40;;;;;;;;;;;;;;;27.19;41.53;94587.31;4918948;29;7381;-60
2022/09/11 09:07:26;;;;;;;;;;;;;;;27.21;41.24;94587.53;4903447;29;9593;-60
2022/09/11 09:10:23;;;;;;;;;;;;;;;27.20;41.41;94586.06;4917866;29;9493;-60
2022/09/11 09:13:25;;;;;;;;;;;;;;;27.19;41.53;94595.59;4915971;29;7010;-60
2022/09/11 09:16:15;;;;;;;;;;;;;;;27.18;40.99;94585.09;4917815;29;8197;-60
2022/09/11 09:18:52;;;;;;;;;;;;;;;27.18;41.59;94602.41;4928357;29;7315;-60
2022/09/11 09:21:30;;;;;;;;;;;;;;;27.19;41.38;94594.84;4930054;28;9242;-60
2022/09/11 09:24:20;;;;;;;;;;;;;;;27.19;41.67;94597.59;4946520;28;7290;-60
2022/09/11 09:26:56;;;;;;;;;;;;;;;27.19;41.77;94592.09;4932565;28;7376;-60
2022/09/11 09:29:30;;;;;;;;;;;;;;;27.18;41.73;94591.34;4936360;28;7190;-59
2022/09/11 09:32:11;;;;;;;;;;;;;;;27.19;41.51;94589.31;4954406;28;7285;-60
2022/09/11 09:34:51;;;;;;;;;;;;;;;27.19;41.35;94587.31;4986967;28;10421;-60
2022/09/11 09:37:27;;;;;;;;;;;;;;;27.19;41.87;94590.06;4986996;28;7417;-60
2022/09/11 09:40:08;;;;;;;;;;;;;;;27.21;41.87;94589.59;4992926;28;7254;-60
2022/09/11 09:43:01;;;;;;;;;;;;;;;27.20;41.66;94591.59;4989168;28;9793;-60
2022/09/11 09:45:31;;;;;;;;;;;;;;;27.21;41.55;94586.81;4982779;28;7091;-60
2022/09/11 09:48:09;;;;;;;;;;;;;;;27.21;41.56;94584.78;5010275;28;7564;-60
2022/09/11 09:50:48;;;;;;;;;;;;;;;27.22;41.41;94580.78;4990655;28;7091;-60
2022/09/11 09:53:40;;;;;;;;;;;;;;;27.22;41.71;94571.72;5005629;28;7721;-60
2022/09/11 09:56:06;;;;;;;;;;;;;;;27.23;41.63;94576.72;4988295;28;8074;-60
2022/09/11 09:58:47;;;;;;;;;;;;;;;27.26;41.39;94574.94;4986534;28;7008;-60
2022/09/11 10:01:45;;;;;;;;;;;;;;;27.26;41.58;94569.44;4986980;28;7006;-60
2022/09/11 10:04:30;;;;;;;;;;;;;;;27.27;41.69;94571.69;4990685;28;7063;-60
2022/09/11 10:07:13;;;;;;;;;;;;;;;27.28;42.10;94570.41;5002288;28;7434;-60
2022/09/11 10:09:58;;;;;;;;;;;;;;;27.28;41.31;94562.13;4989514;28;7185;-60
2022/09/11 10:12:30;;;;;;;;;;;;;;;27.30;41.31;94556.81;4989822;28;9079;-60
2022/09/11 10:15:28;;;;;;;;;;;;;;;27.31;41.07;94555.56;4989714;28;7362;-60
2022/09/11 10:18:42;;;;;;;;;;;;;;;27.32;41.07;94557.06;4972753;28;7406;-60
2022/09/11 10:21:28;;;;;;;;;;;;;;;27.33;41.33;94552.28;4930153;29;9420;-60
2022/09/11 10:24:22;;;;;;;;;;;;;;;27.32;41.17;94551.53;4949697;28;7153;-60
2022/09/11 10:26:57;;;;;;;;;;;;;;;27.32;41.60;94554.28;4913383;29;7416;-60
2022/09/11 10:29:50;;;;;;;;;;;;;;;27.29;41.47;94558.13;4912607;29;9531;-60
2022/09/11 10:32:17;;;;;;;;;;;;;;;27.28;40.89;94547.56;4895816;29;10763;-60
2022/09/11 10:34:47;;;;;;;;;;;;;;;27.31;41.45;94554.81;4911879;29;7236;-60
2022/09/11 10:37:33;;;;;;;;;;;;;;;27.30;41.70;94554.06;4908653;29;7308;-60
2022/09/11 10:40:20;;;;;;;;;;;;;;;27.30;41.97;94556.06;4893673;29;7984;-60
2022/09/11 10:43:23;;;;;;;;;;;;;;;27.35;41.54;94561.59;4906695;29;7574;-60
2022/09/11 10:46:23;;;;;;;;;;;;;;;27.36;41.37;94563.06;4895888;29;7011;-60
2022/09/11 10:49:22;;;;;;;;;;;;;;;27.37;41.38;94555.53;4910708;29;10806;-60
2022/09/11 10:52:17;;;;;;;;;;;;;;;27.36;41.50;94557.53;4821080;29;7279;-60
2022/09/11 10:55:14;;;;;;;;;;;;;;;27.37;41.42;94561.06;4821884;29;7337;-60
2022/09/11 10:57:51;;;;;;;;;;;;;;;27.37;41.75;94558.28;4834240;29;7257;-60
2022/09/11 11:00:22;;;;;;;;;;;;;;;27.37;41.63;94558.28;4822907;29;9434;-60
2022/09/11 11:02:58;;;;;;;;;;;;;;;27.36;41.49;94556.81;4849489;29;7316;-60
2022/09/11 11:05:48;;;;;;;;;;;;;;;27.39;41.25;94555.75;4906872;29;8132;-60
2022/09/11 11:08:33;;;;;;;;;;;;;;;27.40;41.59;94563.56;4905571;29;7314;-60
2022/09/11 11:11:31;;;;;;;;;;;;;;;27.41;41.14;94553.97;4919797;29;7061;-60
2022/09/11 11:14:06;;;;;;;;;;;;;;;27.41;41.55;94553.97;4916017;29;7235;-60
2022/09/11 11:16:38;;;;;;;;;;;;;;;27.43;41.68;94547.94;4914284;29;8142;-60
2022/09/11 11:19:07;;;;;;;;;;;;;;;27.45;41.48;94543.38;4917086;29;7263;-60
2022/09/11 11:22:03;;;;;;;;;;;;;;;27.48;41.46;94547.13;4924351;29;7010;-60
2022/09/11 11:24:36;;;;;;;;;;;;;;;27.48;41.74;94539.59;4922493;29;7078;-60
2022/09/11 11:27:39;;;;;;;;;;;;;;;27.49;41.69;94543.84;4924824;28;7287;-60
2022/09/11 11:30:14;;;;;;;;;;;;;;;27.52;41.52;94544.81;4987179;28;7306;-60
2022/09/11 11:33:09;;;;;;;;;;;;;;;27.53;41.62;94540.81;4986580;28;7225;-60
2022/09/11 11:35:56;;;;;;;;;;;;;;;27.53;41.77;94546.31;5010584;28;7260;-60
2022/09/11 11:39:08;;;;;;;;;;;;;;;27.54;41.71;94550.56;4975508;28;7298;-60
2022/09/11 11:41:57;;;;;;;;;;;;;;;27.54;41.81;94545.78;4974062;28;7284;-60
2022/09/11 11:44:43;;;;;;;;;;;;;;;27.54;42.00;94556.84;4969493;28;7294;-60
2022/09/11 11:47:28;;;;;;;;;;;;;;;27.56;41.58;94548.78;4957414;28;7576;-60
2022/09/11 11:50:12;;;;;;;;;;;;;;;27.57;42.14;94550.28;4949881;28;8511;-60
2022/09/11 11:52:57;;;;;;;;;;;;;;;27.59;42.11;94552.53;4951282;28;7293;-60
2022/09/11 11:55:31;;;;;;;;;;;;;;;27.59;41.89;94542.22;4962890;28;7219;-60
2022/09/11 11:58:17;;;;;;;;;;;;;;;27.63;41.30;94542.69;4949822;28;7172;-60
2022/09/11 12:00:54;;;;;;;;;;;;;;;27.63;41.10;94548.22;4950708;28;7649;-60
2022/09/11 12:03:25;;;;;;;;;;;;;;;27.61;41.42;94545.22;4965554;28;9395;-60
2022/09/11 12:05:51;;;;;;;;;;;;;;;27.65;41.38;94544.91;4965901;28;9130;-60
2022/09/11 12:08:18;;;;;;;;;;;;;;;27.67;41.49;94536.84;4985165;28;7085;-60
2022/09/11 12:10:56;;;;;;;;;;;;;;;27.67;41.21;94547.91;4971638;28;7234;-60
2022/09/11 12:13:30;;;;;;;;;;;;;;;27.68;41.81;94538.34;4971011;28;6969;-60
2022/09/11 12:16:16;;;;;;;;;;;;;;;27.70;41.28;94543.34;4984871;28;6991;-60
2022/09/11 12:19:02;;;;;;;;;;;;;;;27.70;41.95;94535.06;4986076;28;7335;-60
2022/09/11 12:21:32;;;;;;;;;;;;;;;27.72;41.33;94535.28;5010434;28;7220;-60
2022/09/11 12:24:02;;;;;;;;;;;;;;;27.71;41.58;94531.78;5007087;28;7368;-60
2022/09/11 12:26:37;;;;;;;;;;;;;;;27.71;41.79;94539.34;5005796;28;9450;-60
2022/09/11 12:29:13;;;;;;;;;;;;;;;27.72;41.59;94524.97;5003795;28;7241;-59
2022/09/11 12:32:05;;;;;;;;;;;;;;;27.73;41.59;94523.69;5005305;28;7630;-60
2022/09/11 12:34:38;;;;;;;;;;;;;;;27.75;41.42;94523.19;4988955;28;7264;-60
2022/09/11 12:37:26;;;;;;;;;;;;;;;27.77;41.60;94517.91;5008495;28;7080;-59
2022/09/11 12:40:31;;;;;;;;;;;;;;;27.79;41.30;94512.59;4990941;28;9393;-59
2022/09/11 12:43:31;;;;;;;;;;;;;;;27.80;41.03;94511.31;4986615;28;7689;-60
2022/09/11 12:46:06;;;;;;;;;;;;;;;27.81;40.67;94507.28;4987330;28;7292;-60
2022/09/11 12:48:56;;;;;;;;;;;;;;;27.81;40.60;94512.81;5006017;28;7260;-60
2022/09/11 12:51:28;;;;;;;;;;;;;;;27.82;40.08;94506.75;4997562;28;7205;-59
2022/09/11 12:54:22;;;;;;;;;;;;;;;27.84;40.36;94506.97;5005144;28;7205;-59
2022/09/11 12:56:57;;;;;;;;;;;;;;;27.84;39.90;94503.47;4992273;28;7092;-60
2022/09/11 12:59:36;;;;;;;;;;;;;;;27.86;39.93;94498.91;4989734;28;9319;-60
2022/09/11 13:02:24;;;;;;;;;;;;;;;27.89;39.90;94497.13;4990631;28;9490;-59
2022/09/11 13:05:00;;;;;;;;;;;;;;;27.89;39.64;94491.59;5006527;28;7337;-60
2022/09/11 13:07:44;;;;;;;;;;;;;;;27.89;40.00;94486.06;4992848;28;7219;-60
2022/09/11 13:10:36;;;;;;;;;;;;;;;27.91;39.34;94478.75;4989367;28;8103;-60
2022/09/11 13:13:34;;;;;;;;;;;;;;;27.93;39.29;94478.97;5002556;28;7431;-60
2022/09/11 13:16:27;;;;;;;;;;;;;;;27.93;38.97;94481.72;4950866;28;9376;-60
2022/09/11 13:19:15;;;;;;;;;;;;;;;27.94;39.05;94477.69;4939371;28;7772;-60
2022/09/11 13:21:44;;;;;;;;;;;;;;;27.95;39.06;94470.16;4950895;28;7178;-60
2022/09/11 13:24:33;;;;;;;;;;;;;;;27.97;38.58;94464.84;4948170;28;7864;-60
2022/09/11 13:27:25;;;;;;;;;;;;;;;28.00;38.50;94463.81;4949332;28;7240;-60
2022/09/11 13:30:02;;;;;;;;;;;;;;;28.00;38.18;94467.31;4948596;28;7117;-60
2022/09/11 13:32:37;;;;;;;;;;;;;;;28.01;38.16;94460.53;4948426;28;7366;-60
2022/09/11 13:35:43;;;;;;;;;;;;;;;28.03;38.29;94463.53;4931655;28;7340;-60
2022/09/11 13:38:36;;;;;;;;;;;;;;;28.05;37.73;94455.44;4911984;29;9485;-61
2022/09/11 13:41:12;;;;;;;;;;;;;;;28.06;37.24;94458.94;4907962;29;7396;-60
2022/09/11 13:43:51;;;;;;;;;;;;;;;28.08;38.26;94450.88;4909789;29;7297;-60
2022/09/11 13:46:31;;;;;;;;;;;;;;;28.08;37.89;94448.09;4911431;29;7175;-60
2022/09/11 13:49:11;;;;;;;;;;;;;;;28.10;38.12;94449.06;4914903;29;8945;-60
2022/09/11 13:51:49;;;;;;;;;;;;;;;28.11;38.08;94456.09;4914570;29;7556;-60
2022/09/11 13:54:46;;;;;;;;;;;;;;;28.14;38.07;94457.06;4906669;29;7484;-60
2022/09/11 13:57:22;;;;;;;;;;;;;;;28.13;37.84;94450.03;4911064;29;9741;-60
2022/09/11 13:59:55;;;;;;;;;;;;;;;28.15;37.64;94450.25;4912215;29;7792;-60
2022/09/11 14:02:33;;;;;;;;;;;;;;;28.15;37.61;94444.72;4915461;29;7336;-60
2022/09/11 14:05:05;;;;;;;;;;;;;;;28.18;37.43;94444.44;4910412;29;7469;-60
2022/09/11 14:07:55;;;;;;;;;;;;;;;28.22;37.60;94446.88;4924532;28;7260;-60
2022/09/11 14:10:38;;;;;;;;;;;;;;;28.22;37.35;94441.34;4925620;29;9341;-60
2022/09/11 14:13:26;;;;;;;;;;;;;;;28.24;37.32;94447.09;4927543;29;7259;-60
2022/09/11 14:16:44;;;;;;;;;;;;;;;28.25;37.32;94437.53;4943018;28;7459;-60